createdAt,value
2022-10-30T00:02:24.095Z,27.58
2022-10-30T00:04:50.802Z,28.40
2022-10-30T00:07:17.435Z,28.10
2022-10-30T00:09:44.124Z,25.15
2022-10-30T00:12:10.784Z,27.55
2022-10-30T00:14:37.514Z,25.27
2022-10-30T00:17:04.183Z,26.85
2022-10-30T00:19:30.954Z,23.35
2022-10-30T00:24:28.845Z,22.50
2022-10-30T00:26:55.777Z,23.60
2022-10-30T00:29:26.509Z,22.27
2022-10-30T00:31:53.694Z,25.60
2022-10-30T00:34:20.739Z,21.40
2022-10-30T00:36:47.385Z,25.35
2022-10-30T00:39:14.128Z,24.98
2022-10-30T00:41:41.826Z,25.33
2022-10-30T00:44:38.525Z,20.98
2022-10-30T00:47:15.783Z,19.83
2022-10-30T00:49:54.507Z,21.88
2022-10-30T00:52:23.288Z,20.30
2022-10-30T00:54:51.079Z,29.48
2022-10-30T00:57:18.681Z,21.92
2022-10-30T00:59:46.075Z,21.08
2022-10-30T01:02:12.841Z,23.35
2022-10-30T01:04:40.882Z,20.42
2022-10-30T01:07:11.911Z,20.63
2022-10-30T01:09:40.042Z,21.23
2022-10-30T01:12:07.015Z,24.05
2022-10-30T01:14:36.678Z,24.15
2022-10-30T01:17:25.683Z,24.95
2022-10-30T01:20:04.042Z,22.33
2022-10-30T01:22:37.074Z,23.30
2022-10-30T01:25:22.601Z,27.38
2022-10-30T01:28:06.773Z,21.73
2022-10-30T01:30:41.276Z,22.67
2022-10-30T01:33:37.460Z,22.17
2022-10-30T01:36:10.646Z,22.13
2022-10-30T01:38:43.038Z,21.33
2022-10-30T01:41:09.737Z,26.15
2022-10-30T01:43:37.404Z,21.25
2022-10-30T01:46:25.115Z,21.77
2022-10-30T01:49:13.330Z,22.48
2022-10-30T01:52:04.214Z,24.38
2022-10-30T01:54:52.802Z,21.17
2022-10-30T01:57:25.992Z,19.73
2022-10-30T02:00:04.184Z,17.75
2022-10-30T02:02:39.805Z,25.25
2022-10-30T02:05:09.512Z,18.75
2022-10-30T02:07:36.710Z,20.00
2022-10-30T02:10:05.998Z,19.67
2022-10-30T02:12:32.770Z,20.42
2022-10-30T02:15:00.997Z,23.45
2022-10-30T02:17:28.162Z,19.80
2022-10-30T02:19:54.855Z,21.42
2022-10-30T02:22:24.998Z,18.98
2022-10-30T02:24:52.168Z,19.83
2022-10-30T02:27:21.517Z,20.08
2022-10-30T02:29:49.413Z,20.63
2022-10-30T02:32:16.183Z,21.23
2022-10-30T02:34:44.210Z,19.50
2022-10-30T02:37:11.000Z,19.17
2022-10-30T02:39:39.020Z,25.17
2022-10-30T02:42:05.953Z,18.85
2022-10-30T02:44:32.637Z,18.98
2022-10-30T02:46:59.703Z,19.00
2022-10-30T02:49:27.035Z,23.55
2022-10-30T02:51:54.077Z,21.20
2022-10-30T02:54:20.787Z,25.83
2022-10-30T02:56:48.581Z,18.75
2022-10-30T02:59:15.258Z,23.00
2022-10-30T03:01:42.112Z,23.05
2022-10-30T03:04:08.947Z,18.48
2022-10-30T03:06:37.894Z,21.42
2022-10-30T03:09:04.645Z,18.42
2022-10-30T03:11:31.371Z,19.42
2022-10-30T03:13:58.092Z,20.65
2022-10-30T03:16:26.520Z,19.58
2022-10-30T03:18:54.390Z,20.27
2022-10-30T03:21:23.231Z,21.63
2022-10-30T03:23:50.780Z,19.88
2022-10-30T03:26:18.638Z,18.15
2022-10-30T03:28:50.100Z,20.63
2022-10-30T03:31:18.281Z,19.38
2022-10-30T03:33:46.405Z,21.40
2022-10-30T03:36:14.662Z,17.38
2022-10-30T03:38:41.957Z,19.48
2022-10-30T03:41:10.338Z,18.90
2022-10-30T03:43:37.279Z,19.13
2022-10-30T03:46:04.092Z,24.05
2022-10-30T03:48:31.735Z,20.80
2022-10-30T03:50:59.954Z,22.88
2022-10-30T03:53:28.727Z,19.10
2022-10-30T03:56:03.283Z,22.95
2022-10-30T03:58:38.074Z,19.55
2022-10-30T04:01:08.415Z,23.92
2022-10-30T04:03:38.656Z,25.08
2022-10-30T04:06:07.932Z,18.52
2022-10-30T04:08:34.835Z,17.58
2022-10-30T04:11:02.873Z,19.55
2022-10-30T04:13:29.773Z,24.20
2022-10-30T04:15:58.315Z,21.33
2022-10-30T04:18:26.195Z,21.10
2022-10-30T04:20:53.587Z,20.15
2022-10-30T04:23:21.382Z,22.20
2022-10-30T04:25:48.551Z,20.48
2022-10-30T04:28:15.337Z,20.92
2022-10-30T04:30:42.617Z,20.55
2022-10-30T04:33:13.471Z,24.70
2022-10-30T04:35:41.592Z,18.05
2022-10-30T04:38:19.755Z,19.42
2022-10-30T04:40:47.732Z,19.63
2022-10-30T04:43:15.573Z,20.52
2022-10-30T04:45:45.731Z,20.85
2022-10-30T04:48:15.515Z,21.42
2022-10-30T04:50:43.935Z,21.00
2022-10-30T04:53:16.433Z,16.48
2022-10-30T04:55:44.561Z,21.02
2022-10-30T04:58:13.163Z,19.98
2022-10-30T05:00:42.340Z,17.98
2022-10-30T05:03:22.333Z,16.25
2022-10-30T05:05:56.964Z,22.73
2022-10-30T05:08:23.802Z,18.70
2022-10-30T05:10:50.576Z,20.55
2022-10-30T05:13:17.320Z,18.83
2022-10-30T05:15:44.147Z,21.30
2022-10-30T05:18:10.894Z,22.55
2022-10-30T05:20:37.981Z,25.02
2022-10-30T05:23:04.934Z,19.88
2022-10-30T05:25:32.334Z,20.20
2022-10-30T05:28:02.479Z,19.13
2022-10-30T05:30:32.949Z,22.23
2022-10-30T05:33:08.078Z,19.35
2022-10-30T05:35:35.595Z,18.70
2022-10-30T05:38:06.776Z,23.80
2022-10-30T05:40:34.539Z,23.80
2022-10-30T05:43:01.638Z,20.38
2022-10-30T05:45:29.139Z,19.20
2022-10-30T05:48:00.609Z,22.52
2022-10-30T05:50:32.039Z,21.92
2022-10-30T05:53:17.816Z,21.98
2022-10-30T05:55:44.587Z,24.40
2022-10-30T05:58:19.491Z,19.58
2022-10-30T06:00:46.843Z,20.15
2022-10-30T06:03:19.310Z,22.30
2022-10-30T06:05:46.907Z,20.52
2022-10-30T06:08:16.461Z,18.20
2022-10-30T06:10:44.664Z,20.40
2022-10-30T06:13:14.644Z,19.45
2022-10-30T06:15:57.534Z,22.08
2022-10-30T06:18:28.503Z,21.77
2022-10-30T06:20:59.919Z,19.15
2022-10-30T06:23:45.168Z,17.17
2022-10-30T06:26:38.021Z,20.45
2022-10-30T06:29:09.287Z,20.77
2022-10-30T06:31:36.028Z,15.48
2022-10-30T06:34:03.535Z,19.65
2022-10-30T06:36:32.376Z,17.65
2022-10-30T06:38:59.541Z,20.17
2022-10-30T06:41:33.951Z,19.80
2022-10-30T06:44:20.815Z,24.95
2022-10-30T06:46:47.616Z,19.85
2022-10-30T06:49:14.325Z,21.60
2022-10-30T06:51:41.245Z,22.02
2022-10-30T06:54:08.016Z,18.38
2022-10-30T06:56:40.640Z,17.55
2022-10-30T06:59:25.980Z,16.77
2022-10-30T07:02:25.258Z,23.48
2022-10-30T07:04:56.053Z,16.65
2022-10-30T07:07:22.788Z,20.15
2022-10-30T07:09:49.971Z,16.65
2022-10-30T07:12:20.496Z,23.85
2022-10-30T07:15:06.126Z,20.80
2022-10-30T07:17:39.098Z,20.35
2022-10-30T07:20:11.760Z,20.60
2022-10-30T07:22:39.275Z,21.90
2022-10-30T07:25:07.676Z,18.38
2022-10-30T07:27:45.497Z,20.30
2022-10-30T07:30:47.701Z,23.13
2022-10-30T07:33:43.605Z,28.38
2022-10-30T07:36:36.777Z,18.25
2022-10-30T07:39:13.463Z,19.90
2022-10-30T07:41:58.766Z,18.80
2022-10-30T07:44:43.738Z,15.32
2022-10-30T07:47:29.262Z,20.13
2022-10-30T07:50:02.528Z,16.92
2022-10-30T07:52:35.808Z,16.55
2022-10-30T07:55:02.812Z,19.27
2022-10-30T07:57:52.300Z,17.63
2022-10-30T08:00:37.401Z,15.05
2022-10-30T08:03:19.951Z,16.85
2022-10-30T08:08:41.996Z,19.25
2022-10-30T08:11:31.378Z,16.88
2022-10-30T08:13:59.465Z,24.15
2022-10-30T08:16:26.140Z,21.48
2022-10-30T08:18:53.077Z,18.42
2022-10-30T08:21:23.483Z,19.27
2022-10-30T08:23:56.902Z,16.67
2022-10-30T08:26:26.745Z,16.52
2022-10-30T08:28:53.458Z,14.30
2022-10-30T08:31:20.604Z,20.45
2022-10-30T08:34:02.163Z,13.85
2022-10-30T08:36:35.239Z,12.30
2022-10-30T08:39:04.171Z,14.82
2022-10-30T08:42:00.333Z,17.05
2022-10-30T08:44:32.526Z,16.58
2022-10-30T08:47:25.347Z,14.20
2022-10-30T08:49:52.974Z,13.60
2022-10-30T08:52:22.609Z,12.68
2022-10-30T08:54:55.537Z,15.20
2022-10-30T08:57:24.361Z,17.60
2022-10-30T08:59:52.144Z,13.10
2022-10-30T09:02:39.700Z,16.17
2022-10-30T09:05:38.504Z,20.63
2022-10-30T09:08:31.173Z,16.88
2022-10-30T09:11:04.028Z,13.55
2022-10-30T09:13:30.931Z,15.55
2022-10-30T09:16:02.367Z,16.02
2022-10-30T09:18:31.624Z,10.65
2022-10-30T09:21:01.574Z,15.07
2022-10-30T09:23:33.449Z,13.38
2022-10-30T09:26:38.441Z,16.17
2022-10-30T09:29:12.745Z,16.17
2022-10-30T09:31:45.519Z,11.20
2022-10-30T09:34:16.827Z,16.73
2022-10-30T09:37:12.803Z,10.48
2022-10-30T09:39:39.544Z,16.60
2022-10-30T09:42:19.511Z,16.30
2022-10-30T09:48:47.350Z,12.82
2022-10-30T09:51:49.414Z,15.90
2022-10-30T09:54:38.564Z,16.60
2022-10-30T09:57:19.869Z,16.45
2022-10-30T10:00:23.239Z,13.18
2022-10-30T10:03:06.930Z,13.13
2022-10-30T10:05:56.466Z,13.65
2022-10-30T10:08:42.857Z,11.65
2022-10-30T10:11:35.852Z,11.35
2022-10-30T10:14:09.634Z,10.18
2022-10-30T10:16:38.959Z,12.88
2022-10-30T10:19:27.471Z,13.25
2022-10-30T10:22:00.943Z,16.45
2022-10-30T10:24:31.284Z,15.88
2022-10-30T10:27:11.175Z,12.35
2022-10-30T10:29:50.655Z,14.80
2022-10-30T10:32:51.163Z,13.75
2022-10-30T10:35:48.720Z,13.95
2022-10-30T10:38:27.433Z,12.65
2022-10-30T10:41:00.704Z,8.80
2022-10-30T10:43:51.631Z,9.55
2022-10-30T10:46:44.640Z,11.18
2022-10-30T10:49:46.737Z,11.70
2022-10-30T10:52:17.966Z,14.77
2022-10-30T10:54:54.058Z,8.45
2022-10-30T10:57:28.167Z,10.05
2022-10-30T11:00:03.054Z,9.88
2022-10-30T11:02:41.578Z,9.95
2022-10-30T11:05:16.720Z,15.57
2022-10-30T11:07:48.775Z,8.15
2022-10-30T11:10:17.769Z,10.88
2022-10-30T11:12:44.530Z,13.80
2022-10-30T11:15:33.393Z,16.40
2022-10-30T11:18:03.421Z,13.27
2022-10-30T11:20:36.630Z,10.88
2022-10-30T11:23:03.371Z,9.35
2022-10-30T11:25:35.097Z,9.70
2022-10-30T11:28:04.783Z,13.85
2022-10-30T11:30:31.587Z,13.65
2022-10-30T11:32:59.265Z,12.82
2022-10-30T11:35:26.447Z,11.70
2022-10-30T11:38:15.968Z,16.30
2022-10-30T11:40:47.823Z,12.27
2022-10-30T11:43:16.596Z,12.40
2022-10-30T11:45:43.591Z,12.00
2022-10-30T11:48:15.261Z,10.82
2022-10-30T11:50:47.082Z,16.85
2022-10-30T11:53:21.692Z,12.32
2022-10-30T11:55:49.776Z,10.40
2022-10-30T11:58:30.015Z,13.85
2022-10-30T12:01:21.466Z,17.30
2022-10-30T12:03:48.294Z,14.10
2022-10-30T12:06:26.204Z,14.23
2022-10-30T12:09:15.996Z,14.00
2022-10-30T12:11:46.079Z,11.60
2022-10-30T12:14:23.058Z,13.65
2022-10-30T12:16:55.480Z,8.27
2022-10-30T12:19:24.093Z,9.27
2022-10-30T12:21:53.953Z,15.30
2022-10-30T12:24:31.397Z,12.70
2022-10-30T12:27:02.008Z,9.75
2022-10-30T12:30:07.485Z,14.07
2022-10-30T12:32:39.807Z,11.45
2022-10-30T12:35:17.441Z,14.60
2022-10-30T12:37:44.387Z,13.13
2022-10-30T12:40:21.076Z,16.13
2022-10-30T12:43:05.390Z,13.77
2022-10-30T12:45:40.059Z,10.88
2022-10-30T12:48:23.558Z,10.57
2022-10-30T12:51:08.936Z,8.32
2022-10-30T12:53:41.123Z,12.43
2022-10-30T12:56:19.568Z,10.93
2022-10-30T12:58:50.913Z,12.55
2022-10-30T13:01:35.946Z,15.30
2022-10-30T13:04:19.014Z,11.93
2022-10-30T13:06:51.317Z,9.20
2022-10-30T13:09:36.107Z,12.63
2022-10-30T13:12:25.385Z,8.23
2022-10-30T13:14:58.597Z,14.40
2022-10-30T13:17:25.335Z,14.15
2022-10-30T13:19:52.071Z,15.77
2022-10-30T13:22:20.792Z,14.80
2022-10-30T13:25:15.004Z,10.55
2022-10-30T13:27:52.490Z,8.52
2022-10-30T13:30:23.831Z,8.82
2022-10-30T13:33:08.916Z,14.63
2022-10-30T13:35:36.670Z,10.15
2022-10-30T13:38:17.360Z,9.90
2022-10-30T13:40:51.250Z,11.40
2022-10-30T13:43:21.999Z,12.15
2022-10-30T13:46:11.970Z,9.40
2022-10-30T13:49:17.139Z,12.38
2022-10-30T13:51:56.370Z,10.95
2022-10-30T13:54:30.860Z,10.90
2022-10-30T13:57:02.260Z,9.38
2022-10-30T13:59:45.286Z,13.77
2022-10-30T14:02:22.778Z,13.10
2022-10-30T14:04:58.182Z,10.95
2022-10-30T14:07:36.054Z,12.73
2022-10-30T14:10:08.847Z,12.93
2022-10-30T14:12:44.193Z,17.73
2022-10-30T14:15:20.071Z,12.32
2022-10-30T14:18:14.529Z,11.75
2022-10-30T14:20:51.610Z,9.25
2022-10-30T14:23:23.809Z,17.02
2022-10-30T14:26:03.138Z,20.15
2022-10-30T14:28:49.195Z,12.95
2022-10-30T14:31:18.333Z,13.70
2022-10-30T14:33:49.136Z,18.52
2022-10-30T14:36:25.914Z,12.38
2022-10-30T14:39:21.631Z,9.73
2022-10-30T14:42:14.484Z,10.07
2022-10-30T14:45:29.204Z,12.20
2022-10-30T14:48:14.736Z,11.07
2022-10-30T14:50:59.803Z,15.40
2022-10-30T14:53:57.470Z,14.27
2022-10-30T14:56:55.113Z,11.93
2022-10-30T14:59:24.728Z,18.38
2022-10-30T15:01:56.812Z,15.57
2022-10-30T15:04:57.697Z,12.00
2022-10-30T15:07:25.575Z,11.40
2022-10-30T15:10:03.970Z,18.02
2022-10-30T15:12:47.112Z,12.88
2022-10-30T15:15:15.824Z,12.13
2022-10-30T15:17:45.966Z,14.30
2022-10-30T15:20:18.934Z,16.48
2022-10-30T15:22:51.830Z,13.15
2022-10-30T15:25:20.566Z,11.30
2022-10-30T15:27:50.903Z,11.75
2022-10-30T15:30:24.548Z,12.85
2022-10-30T15:32:51.867Z,14.80
2022-10-30T15:35:24.190Z,10.18
2022-10-30T15:38:08.174Z,12.60
2022-10-30T15:40:35.873Z,15.13
2022-10-30T15:43:03.946Z,13.95
2022-10-30T15:45:45.324Z,19.05
2022-10-30T15:48:23.370Z,11.52
2022-10-30T15:51:04.681Z,14.00
2022-10-30T15:53:36.741Z,16.23
2022-10-30T15:56:03.797Z,19.75
2022-10-30T15:58:31.989Z,17.77
2022-10-30T16:01:00.350Z,13.18
2022-10-30T16:03:27.617Z,10.82
2022-10-30T16:06:17.177Z,10.80
2022-10-30T16:08:45.944Z,12.23
2022-10-30T16:11:12.967Z,9.40
2022-10-30T16:13:39.669Z,9.98
2022-10-30T16:16:07.631Z,9.32
2022-10-30T16:18:36.054Z,11.10
2022-10-30T16:21:06.267Z,11.65
2022-10-30T16:23:47.713Z,14.82
2022-10-30T16:26:30.252Z,12.43
2022-10-30T16:28:57.816Z,12.43
2022-10-30T16:31:24.952Z,16.42
2022-10-30T16:33:51.717Z,15.25
2022-10-30T16:36:18.611Z,12.52
2022-10-30T16:38:47.396Z,14.70
2022-10-30T16:41:14.490Z,13.15
2022-10-30T16:43:44.784Z,15.68
2022-10-30T16:46:14.423Z,13.77
2022-10-30T16:48:55.047Z,15.20
2022-10-30T16:51:21.851Z,18.98
2022-10-30T16:53:49.215Z,13.35
2022-10-30T16:56:27.835Z,12.15
2022-10-30T16:58:57.558Z,13.15
2022-10-30T17:01:26.521Z,13.43
2022-10-30T17:03:54.010Z,11.65
2022-10-30T17:06:39.900Z,10.15
2022-10-30T17:09:26.481Z,15.60
2022-10-30T17:12:15.925Z,17.35
2022-10-30T17:14:51.995Z,16.13
2022-10-30T17:17:23.140Z,18.80
2022-10-30T17:19:55.844Z,15.60
2022-10-30T17:22:22.649Z,13.30
2022-10-30T17:24:49.365Z,12.05
2022-10-30T17:27:32.069Z,14.82
2022-10-30T17:29:58.810Z,14.68
2022-10-30T17:32:41.886Z,12.05
2022-10-30T17:35:19.548Z,15.32
2022-10-30T17:37:46.674Z,13.27
2022-10-30T17:40:14.036Z,13.50
2022-10-30T17:42:41.194Z,11.82
2022-10-30T17:45:10.839Z,15.60
2022-10-30T17:47:38.081Z,15.43
2022-10-30T17:50:05.720Z,17.77
2022-10-30T17:52:33.215Z,13.30
2022-10-30T17:55:01.559Z,17.48
2022-10-30T17:57:28.974Z,14.30
2022-10-30T17:59:55.736Z,12.90
2022-10-30T18:02:23.364Z,14.50
2022-10-30T18:04:50.627Z,17.80
2022-10-30T18:07:17.698Z,19.15
2022-10-30T18:09:44.692Z,13.25
2022-10-30T18:12:15.560Z,18.48
2022-10-30T18:14:43.333Z,16.58
2022-10-30T18:17:10.747Z,16.63
2022-10-30T18:19:37.442Z,12.23
2022-10-30T18:22:04.087Z,19.35
2022-10-30T18:24:30.796Z,17.10
2022-10-30T18:26:58.641Z,17.08
2022-10-30T18:29:25.377Z,14.50
2022-10-30T18:31:52.067Z,13.75
2022-10-30T18:34:21.717Z,17.70
2022-10-30T18:36:48.877Z,13.32
2022-10-30T18:39:15.617Z,16.00
2022-10-30T18:41:46.508Z,18.67
2022-10-30T18:44:14.921Z,20.42
2022-10-30T18:46:43.942Z,18.05
2022-10-30T18:49:10.980Z,16.80
2022-10-30T18:51:37.947Z,15.90
2022-10-30T18:54:11.939Z,14.82
2022-10-30T18:56:38.623Z,18.52
2022-10-30T18:59:05.461Z,19.58
2022-10-30T19:01:32.648Z,18.10
2022-10-30T19:04:04.013Z,14.77
2022-10-30T19:06:32.975Z,16.58
2022-10-30T19:08:59.727Z,18.20
2022-10-30T19:11:28.277Z,21.55
2022-10-30T19:13:57.056Z,17.98
2022-10-30T19:16:26.575Z,16.40
2022-10-30T19:18:53.540Z,23.98
2022-10-30T19:21:22.637Z,16.88
2022-10-30T19:23:49.643Z,16.50
2022-10-30T19:26:17.585Z,18.63
2022-10-30T19:28:45.402Z,22.55
2022-10-30T19:31:17.228Z,17.50
2022-10-30T19:33:44.515Z,16.27
2022-10-30T19:36:43.730Z,14.90
2022-10-30T19:39:12.825Z,17.42
2022-10-30T19:41:40.241Z,12.57
2022-10-30T19:44:06.990Z,18.27
2022-10-30T19:46:33.995Z,15.73
2022-10-30T19:49:00.815Z,20.77
2022-10-30T19:51:28.275Z,21.17
2022-10-30T19:53:54.989Z,24.30
2022-10-30T19:56:22.137Z,22.35
2022-10-30T19:58:49.183Z,23.60
2022-10-30T20:01:16.347Z,18.55
2022-10-30T20:03:43.221Z,17.33
2022-10-30T20:06:13.588Z,17.50
2022-10-30T20:08:40.406Z,16.77
2022-10-30T20:11:07.278Z,13.73
2022-10-30T20:13:34.136Z,20.45
2022-10-30T20:16:02.747Z,21.10
2022-10-30T20:18:31.701Z,19.67
2022-10-30T20:21:00.617Z,23.98
2022-10-30T20:23:28.051Z,18.75
2022-10-30T20:25:58.502Z,23.15
2022-10-30T20:28:37.359Z,20.40
2022-10-30T20:31:05.108Z,36.72
2022-10-30T20:33:31.922Z,19.08
2022-10-30T20:35:58.779Z,21.38
2022-10-30T20:38:30.662Z,22.00
2022-10-30T20:40:58.637Z,24.15
2022-10-30T20:43:28.359Z,21.50
2022-10-30T20:45:55.038Z,30.02
2022-10-30T20:48:21.805Z,25.92
2022-10-30T20:50:50.844Z,24.88
2022-10-30T20:53:17.752Z,28.70
2022-10-30T20:55:45.377Z,34.22
2022-10-30T20:58:12.157Z,34.97
2022-10-30T21:00:38.924Z,36.15
2022-10-30T21:03:06.320Z,35.15
2022-10-30T21:05:45.392Z,35.38
2022-10-30T21:08:15.830Z,36.58
2022-10-30T21:10:42.925Z,35.53
2022-10-30T21:13:11.292Z,31.08
2022-10-30T21:15:40.270Z,32.75
2022-10-30T21:18:07.685Z,26.58
2022-10-30T21:20:34.353Z,29.27
2022-10-30T21:23:01.028Z,23.88
2022-10-30T21:25:28.803Z,26.67
2022-10-30T21:27:58.899Z,25.95
2022-10-30T21:30:25.554Z,24.35
2022-10-30T21:32:52.330Z,23.88
2022-10-30T21:35:19.383Z,21.48
2022-10-30T21:37:46.154Z,21.83
2022-10-30T21:40:13.170Z,24.20
2022-10-30T21:42:39.864Z,22.95
2022-10-30T21:45:07.207Z,23.15
2022-10-30T21:47:33.885Z,19.25
2022-10-30T21:50:00.542Z,24.08
2022-10-30T21:52:27.244Z,27.25
2022-10-30T21:54:53.929Z,28.25
2022-10-30T21:57:20.644Z,27.15
2022-10-30T21:59:47.303Z,26.40
2022-10-30T22:02:15.484Z,28.92
2022-10-30T22:04:42.345Z,23.95
2022-10-30T22:07:09.275Z,25.52
2022-10-30T22:09:35.948Z,25.75
2022-10-30T22:12:02.648Z,31.25
2022-10-30T22:14:29.532Z,21.10
2022-10-30T22:16:56.467Z,24.85
2022-10-30T22:19:23.182Z,23.65
2022-10-30T22:21:49.852Z,26.08
2022-10-30T22:24:17.488Z,23.23
2022-10-30T22:26:44.321Z,21.65
2022-10-30T22:29:11.563Z,22.20
2022-10-30T22:31:38.254Z,25.05
2022-10-30T22:34:04.987Z,26.88
2022-10-30T22:36:33.368Z,23.58
2022-10-30T22:39:00.827Z,29.13
2022-10-30T22:41:31.403Z,26.55
2022-10-30T22:44:01.447Z,25.05
2022-10-30T22:46:30.060Z,23.73
2022-10-30T22:48:57.657Z,20.40
2022-10-30T22:51:25.519Z,27.80
2022-10-30T22:53:57.657Z,24.88
2022-10-30T22:56:29.898Z,25.58
2022-10-30T22:58:57.007Z,22.50
2022-10-30T23:01:28.894Z,21.98
2022-10-30T23:03:57.684Z,23.00
2022-10-30T23:06:24.720Z,26.15
2022-10-30T23:08:56.916Z,21.77
2022-10-30T23:11:24.302Z,26.52
2022-10-30T23:13:53.840Z,24.88
2022-10-30T23:16:22.933Z,21.30
2022-10-30T23:18:50.561Z,23.27
2022-10-30T23:21:22.337Z,20.95
2022-10-30T23:23:49.434Z,22.33
2022-10-30T23:26:19.410Z,23.77
2022-10-30T23:28:46.827Z,23.65
2022-10-30T23:31:27.036Z,27.58
2022-10-30T23:33:56.761Z,23.60
2022-10-30T23:36:23.869Z,23.20
2022-10-30T23:38:54.502Z,26.48
2022-10-30T23:41:22.239Z,21.20
2022-10-30T23:43:48.992Z,26.77
2022-10-30T23:46:15.669Z,29.35
2022-10-30T23:48:42.320Z,24.35
2022-10-30T23:51:09.427Z,28.67
2022-10-30T23:53:36.194Z,25.80
2022-10-30T23:56:04.219Z,21.73
2022-10-30T23:58:30.865Z,24.33
